Decoded Metar for ULOO (PSKOV in RUSSIA) (IATA:PKV) | Meteo·Mobile Aviation Weather
aviador You're here:

ULOO Decoded Metar

PSKOV in RUSSIA
Report Time2019-07-22 01:00:00
UTC Time2019-07-22 01:15:26
Flight Rules lifr LIFR
Wind360° at 4 kt
W.Decomp.*RWY 01: 3.8 kt HW 1.2 kt LCW
Visibility0400 m
Phenomena:N/A
Clouds:N/A
Expected CloudBase > 400 ft AGL from Temp-Dew spread
CeilingNone
Temp12°C (ISA -3)
Dew Point11°C (94% RH)
AAT10.9°C
QNH1016 hPa
Density Alt-92 ft
Elevation154 ft
Report Wrong Elevation
Raw Report
ULOO 220100Z AUTO 36002MPS 5000 0400E // NCD 12/11 Q1016 RMK
QFE758=

Extra information for ULOO:More info

Metar Taf Metar & Taf Last 4 Metars F.Rules Stats Wind Profile Meteogram Temp Stats Airport Information Weather charts Add Link Nearby VenuesMetar ALERT Operation Metar Decoded Social comments